sensor_id;sensor_type;location;lat;lon;timestamp;pressure;altitude;pressure_sealevel;temperature;humidity
59240;BME280;45010;53.640;10.578;2023-12-04T00:00:54;101245.94;;;26.84;28.89
59240;BME280;45010;53.640;10.578;2023-12-04T00:03:55;101249.31;;;26.79;28.80
59240;BME280;45010;53.640;10.578;2023-12-04T00:06:55;101244.53;;;26.69;29.42
59240;BME280;45010;53.640;10.578;2023-12-04T00:09:55;101245.38;;;26.70;29.39
59240;BME280;45010;53.640;10.578;2023-12-04T00:12:56;101236.16;;;26.66;29.00
59240;BME280;45010;53.640;10.578;2023-12-04T00:15:56;101235.00;;;26.62;29.10
59240;BME280;45010;53.640;10.578;2023-12-04T00:18:56;101234.66;;;26.58;29.45
59240;BME280;45010;53.640;10.578;2023-12-04T00:21:56;101231.84;;;26.53;29.45
59240;BME280;45010;53.640;10.578;2023-12-04T00:24:57;101226.97;;;26.50;29.04
59240;BME280;45010;53.640;10.578;2023-12-04T00:27:57;101219.66;;;26.45;29.58
59240;BME280;45010;53.640;10.578;2023-12-04T00:30:57;101215.59;;;26.42;29.16
59240;BME280;45010;53.640;10.578;2023-12-04T00:33:58;101212.56;;;26.39;29.48
59240;BME280;45010;53.640;10.578;2023-12-04T00:36:58;101216.50;;;26.36;29.58
59240;BME280;45010;53.640;10.578;2023-12-04T00:39:58;101208.59;;;26.29;29.68
59240;BME280;45010;53.640;10.578;2023-12-04T00:42:59;101190.41;;;26.19;29.32
59240;BME280;45010;53.640;10.578;2023-12-04T00:45:59;101200.66;;;26.23;29.48
59240;BME280;45010;53.640;10.578;2023-12-04T00:48:59;101197.38;;;26.21;29.61
59240;BME280;45010;53.640;10.578;2023-12-04T00:51:59;101203.22;;;26.17;29.53
59240;BME280;45010;53.640;10.578;2023-12-04T00:55:00;101199.34;;;26.13;29.30
59240;BME280;45010;53.640;10.578;2023-12-04T00:58:00;101184.59;;;25.99;29.32
59240;BME280;45010;53.640;10.578;2023-12-04T01:01:00;101198.19;;;26.09;29.44
59240;BME280;45010;53.640;10.578;2023-12-04T01:04:01;101191.44;;;26.06;29.57
59240;BME280;45010;53.640;10.578;2023-12-04T01:07:01;101184.69;;;26.04;29.75
59240;BME280;45010;53.640;10.578;2023-12-04T01:10:03;101189.47;;;26.02;29.71
59240;BME280;45010;53.640;10.578;2023-12-04T01:13:03;101181.31;;;25.97;29.39
59240;BME280;45010;53.640;10.578;2023-12-04T01:16:04;101178.63;;;25.97;29.46
59240;BME280;45010;53.640;10.578;2023-12-04T01:19:04;101179.25;;;25.99;29.66
59240;BME280;45010;53.640;10.578;2023-12-04T01:22:05;101178.41;;;25.98;29.45
59240;BME280;45010;53.640;10.578;2023-12-04T01:25:06;101183.41;;;25.95;29.53
59240;BME280;45010;53.640;10.578;2023-12-04T01:28:07;101175.84;;;25.91;29.42
59240;BME280;45010;53.640;10.578;2023-12-04T01:31:07;101175.69;;;25.86;29.63
59240;BME280;45010;53.640;10.578;2023-12-04T01:34:07;101172.47;;;25.84;29.66
59240;BME280;45010;53.640;10.578;2023-12-04T01:37:08;101166.75;;;25.81;29.60
59240;BME280;45010;53.640;10.578;2023-12-04T01:40:09;101161.06;;;25.77;29.77
59240;BME280;45010;53.640;10.578;2023-12-04T01:43:09;101161.50;;;25.74;29.77
59240;BME280;45010;53.640;10.578;2023-12-04T01:46:10;101160.34;;;25.70;29.85
59240;BME280;45010;53.640;10.578;2023-12-04T01:49:11;101154.66;;;25.66;29.93
59240;BME280;45010;53.640;10.578;2023-12-04T01:52:11;101156.97;;;25.62;29.93
59240;BME280;45010;53.640;10.578;2023-12-04T01:55:12;101156.34;;;25.60;29.89
59240;BME280;45010;53.640;10.578;2023-12-04T01:58:12;101145.78;;;25.54;29.86
59240;BME280;45010;53.640;10.578;2023-12-04T02:01:13;101140.44;;;25.54;29.91
59240;BME280;45010;53.640;10.578;2023-12-04T02:04:13;101151.13;;;25.54;30.06
59240;BME280;45010;53.640;10.578;2023-12-04T02:07:13;101143.75;;;25.49;30.07
59240;BME280;45010;53.640;10.578;2023-12-04T02:10:15;101133.53;;;25.46;30.04
59240;BME280;45010;53.640;10.578;2023-12-04T02:13:15;101135.59;;;25.44;29.98
59240;BME280;45010;53.640;10.578;2023-12-04T02:16:16;101137.56;;;25.36;29.96
59240;BME280;45010;53.640;10.578;2023-12-04T02:19:19;101133.25;;;25.35;29.97
59240;BME280;45010;53.640;10.578;2023-12-04T02:22:19;101138.16;;;25.38;30.03
59240;BME280;45010;53.640;10.578;2023-12-04T02:25:19;101138.59;;;25.35;30.14
59240;BME280;45010;53.640;10.578;2023-12-04T02:28:20;101128.38;;;25.32;30.07
59240;BME280;45010;53.640;10.578;2023-12-04T02:31:22;101126.72;;;25.31;30.28
59240;BME280;45010;53.640;10.578;2023-12-04T02:34:24;101123.47;;;25.29;30.22
59240;BME280;45010;53.640;10.578;2023-12-04T02:37:25;101096.50;;;25.19;30.29
59240;BME280;45010;53.640;10.578;2023-12-04T02:40:26;101115.13;;;25.25;30.20
59240;BME280;45010;53.640;10.578;2023-12-04T02:43:27;101106.75;;;25.22;30.42
59240;BME280;45010;53.640;10.578;2023-12-04T02:46:27;101097.41;;;25.12;30.39
59240;BME280;45010;53.640;10.578;2023-12-04T02:49:27;101107.44;;;25.17;30.19
59240;BME280;45010;53.640;10.578;2023-12-04T02:52:28;101102.31;;;25.16;30.33
59240;BME280;45010;53.640;10.578;2023-12-04T02:55:28;101091.50;;;25.10;30.31
59240;BME280;45010;53.640;10.578;2023-12-04T02:58:29;101097.41;;;25.12;30.30
59240;BME280;45010;53.640;10.578;2023-12-04T03:01:29;101083.50;;;25.10;30.37
59240;BME280;45010;53.640;10.578;2023-12-04T03:04:30;101083.72;;;25.09;30.34
59240;BME280;45010;53.640;10.578;2023-12-04T03:07:31;101089.25;;;25.07;30.30
59240;BME280;45010;53.640;10.578;2023-12-04T03:10:32;101089.72;;;25.04;30.26
59240;BME280;45010;53.640;10.578;2023-12-04T03:13:34;101082.78;;;25.03;30.50
59240;BME280;45010;53.640;10.578;2023-12-04T03:16:34;101081.94;;;25.03;30.68
59240;BME280;45010;53.640;10.578;2023-12-04T03:19:35;101073.56;;;24.99;30.44
59240;BME280;45010;53.640;10.578;2023-12-04T03:22:38;101067.66;;;24.97;30.60
59240;BME280;45010;53.640;10.578;2023-12-04T03:25:38;101061.50;;;24.96;30.08
59240;BME280;45010;53.640;10.578;2023-12-04T03:28:38;101068.09;;;24.94;30.48
59240;BME280;45010;53.640;10.578;2023-12-04T03:31:40;101061.13;;;24.93;30.64
59240;BME280;45010;53.640;10.578;2023-12-04T03:34:40;101064.84;;;24.92;30.46
59240;BME280;45010;53.640;10.578;2023-12-04T03:37:40;101057.88;;;24.91;30.54
59240;BME280;45010;53.640;10.578;2023-12-04T03:40:41;101054.63;;;24.89;30.53
59240;BME280;45010;53.640;10.578;2023-12-04T03:43:41;101047.06;;;24.85;30.64
59240;BME280;45010;53.640;10.578;2023-12-04T03:46:42;101043.22;;;24.81;30.71
59240;BME280;45010;53.640;10.578;2023-12-04T03:49:42;101048.13;;;24.84;30.58
59240;BME280;45010;53.640;10.578;2023-12-04T03:52:42;101042.19;;;24.82;30.52
59240;BME280;45010;53.640;10.578;2023-12-04T03:55:43;101036.22;;;24.80;30.74
59240;BME280;45010;53.640;10.578;2023-12-04T03:58:43;101025.56;;;24.80;30.80
59240;BME280;45010;53.640;10.578;2023-12-04T04:01:43;101019.88;;;24.77;30.61
59240;BME280;45010;53.640;10.578;2023-12-04T04:04:44;101022.31;;;24.78;30.36
59240;BME280;45010;53.640;10.578;2023-12-04T04:07:44;101007.22;;;24.72;30.14
59240;BME280;45010;53.640;10.578;2023-12-04T04:10:44;101003.03;;;24.76;30.83
59240;BME280;45010;53.640;10.578;2023-12-04T04:13:45;100991.22;;;24.72;30.80
59240;BME280;45010;53.640;10.578;2023-12-04T04:16:46;100992.84;;;24.73;30.72
59240;BME280;45010;53.640;10.578;2023-12-04T04:19:46;100990.38;;;24.71;30.83
59240;BME280;45010;53.640;10.578;2023-12-04T04:22:49;100984.22;;;24.71;30.87
59240;BME280;45010;53.640;10.578;2023-12-04T04:25:50;100972.75;;;24.70;30.77
59240;BME280;45010;53.640;10.578;2023-12-04T04:28:50;100975.66;;;24.69;30.85
59240;BME280;45010;53.640;10.578;2023-12-04T04:31:50;100970.31;;;24.69;30.58
59240;BME280;45010;53.640;10.578;2023-12-04T04:34:51;100953.72;;;24.67;30.79
59240;BME280;45010;53.640;10.578;2023-12-04T04:37:51;100953.13;;;24.65;30.62
59240;BME280;45010;53.640;10.578;2023-12-04T04:40:51;100936.88;;;24.54;30.76
59240;BME280;45010;53.640;10.578;2023-12-04T04:43:52;100962.16;;;24.64;30.89
59240;BME280;45010;53.640;10.578;2023-12-04T04:46:53;100907.28;;;24.25;30.97
59240;BME280;45010;53.640;10.578;2023-12-04T04:49:53;100967.50;;;24.64;30.67
59240;BME280;45010;53.640;10.578;2023-12-04T04:52:54;100969.38;;;24.63;30.96
59240;BME280;45010;53.640;10.578;2023-12-04T04:55:54;100951.38;;;24.58;31.18
59240;BME280;45010;53.640;10.578;2023-12-04T04:58:55;100947.06;;;24.57;30.98
59240;BME280;45010;53.640;10.578;2023-12-04T05:01:56;100950.94;;;24.62;30.89
59240;BME280;45010;53.640;10.578;2023-12-04T05:04:56;100950.94;;;24.62;31.03
59240;BME280;45010;53.640;10.578;2023-12-04T05:07:57;100951.97;;;24.61;30.96
59240;BME280;45010;53.640;10.578;2023-12-04T05:10:57;100946.03;;;24.58;31.16
59240;BME280;45010;53.640;10.578;2023-12-04T05:13:57;100939.06;;;24.57;30.92
59240;BME280;45010;53.640;10.578;2023-12-04T05:16:58;100947.91;;;24.58;30.95
59240;BME280;45010;53.640;10.578;2023-12-04T05:19:58;100941.75;;;24.57;31.16
59240;BME280;45010;53.640;10.578;2023-12-04T05:22:59;100946.28;;;24.57;31.00
59240;BME280;45010;53.640;10.578;2023-12-04T05:25:59;100941.75;;;24.57;31.10
59240;BME280;45010;53.640;10.578;2023-12-04T05:28:59;100918.50;;;24.46;31.15
59240;BME280;45010;53.640;10.578;2023-12-04T05:32:00;100928.63;;;24.56;31.00
59240;BME280;45010;53.640;10.578;2023-12-04T05:35:00;100932.13;;;24.56;31.10
59240;BME280;45010;53.640;10.578;2023-12-04T05:38:00;100925.97;;;24.56;31.18
59240;BME280;45010;53.640;10.578;2023-12-04T05:41:01;100922.50;;;24.55;31.13
59240;BME280;45010;53.640;10.578;2023-12-04T05:44:01;100910.22;;;24.54;31.14
59240;BME280;45010;53.640;10.578;2023-12-04T05:47:01;100917.16;;;24.55;31.30
59240;BME280;45010;53.640;10.578;2023-12-04T05:50:02;100914.72;;;24.54;31.21
59240;BME280;45010;53.640;10.578;2023-12-04T05:53:02;100909.16;;;24.55;31.26
59240;BME280;45010;53.640;10.578;2023-12-04T05:56:04;100918.22;;;24.54;31.27
59240;BME280;45010;53.640;10.578;2023-12-04T05:59:05;100914.72;;;24.54;31.16
59240;BME280;45010;53.640;10.578;2023-12-04T06:02:05;100908.56;;;24.53;31.11
59240;BME280;45010;53.640;10.578;2023-12-04T06:05:06;100898.00;;;24.47;31.07
59240;BME280;45010;53.640;10.578;2023-12-04T06:08:07;100888.59;;;24.44;31.22
59240;BME280;45010;53.640;10.578;2023-12-04T06:11:08;100902.44;;;24.53;31.15
59240;BME280;45010;53.640;10.578;2023-12-04T06:14:08;100895.22;;;24.53;31.29
59240;BME280;45010;53.640;10.578;2023-12-04T06:17:08;100890.94;;;24.52;31.40
59240;BME280;45010;53.640;10.578;2023-12-04T06:20:09;100886.44;;;24.53;31.17
59240;BME280;45010;53.640;10.578;2023-12-04T06:23:11;100884.81;;;24.52;31.27
59240;BME280;45010;53.640;10.578;2023-12-04T06:26:12;100889.31;;;24.51;31.31
59240;BME280;45010;53.640;10.578;2023-12-04T06:29:13;100861.81;;;24.39;31.23
59240;BME280;45010;53.640;10.578;2023-12-04T06:32:13;100890.16;;;24.52;31.09
59240;BME280;45010;53.640;10.578;2023-12-04T06:35:14;100875.84;;;24.46;31.30
59240;BME280;45010;53.640;10.578;2023-12-04T06:38:15;100887.69;;;24.50;31.35
59240;BME280;45010;53.640;10.578;2023-12-04T06:41:19;100877.38;;;24.42;31.47
59240;BME280;45010;53.640;10.578;2023-12-04T06:44:21;100877.03;;;24.50;31.38
59240;BME280;45010;53.640;10.578;2023-12-04T06:47:22;100873.31;;;24.51;31.43
59240;BME280;45010;53.640;10.578;2023-12-04T06:50:23;100872.75;;;24.49;31.32
59240;BME280;45010;53.640;10.578;2023-12-04T06:53:23;100874.38;;;24.50;31.36
59240;BME280;45010;53.640;10.578;2023-12-04T06:56:24;100865.53;;;24.50;31.46
59240;BME280;45010;53.640;10.578;2023-12-04T06:59:24;100877.03;;;24.50;31.68
59240;BME280;45010;53.640;10.578;2023-12-04T07:02:24;100862.78;;;24.44;31.45
59240;BME280;45010;53.640;10.578;2023-12-04T07:05:25;100869.03;;;24.50;31.66
59240;BME280;45010;53.640;10.578;2023-12-04T07:08:25;100868.22;;;24.50;31.16
59240;BME280;45010;53.640;10.578;2023-12-04T07:11:25;100859.41;;;24.49;31.62
59240;BME280;45010;53.640;10.578;2023-12-04T07:14:26;100863.13;;;24.48;31.49
59240;BME280;45010;53.640;10.578;2023-12-04T07:17:26;100857.44;;;24.44;31.77
59240;BME280;45010;53.640;10.578;2023-12-04T07:20:26;100859.84;;;24.46;31.70
59240;BME280;45010;53.640;10.578;2023-12-04T07:23:27;100819.94;;;24.27;31.94
59240;BME280;45010;53.640;10.578;2023-12-04T07:26:27;100860.56;;;24.53;32.45
59240;BME280;45010;53.640;10.578;2023-12-04T07:29:28;100854.09;;;24.49;32.47
59240;BME280;45010;53.640;10.578;2023-12-04T07:32:28;100855.69;;;24.50;32.84
59240;BME280;45010;53.640;10.578;2023-12-04T07:35:29;100854.09;;;24.49;32.69
59240;BME280;45010;53.640;10.578;2023-12-04T07:38:29;100856.41;;;24.57;32.95
59240;BME280;45010;53.640;10.578;2023-12-04T07:41:29;100854.34;;;24.60;32.99
59240;BME280;45010;53.640;10.578;2023-12-04T07:44:30;100859.56;;;24.66;32.60
59240;BME280;45010;53.640;10.578;2023-12-04T07:47:30;100858.31;;;24.69;32.59
59240;BME280;45010;53.640;10.578;2023-12-04T07:50:30;100865.59;;;24.74;32.32
59240;BME280;45010;53.640;10.578;2023-12-04T07:53:31;100841.47;;;24.68;32.21
59240;BME280;45010;53.640;10.578;2023-12-04T07:56:32;100855.91;;;24.79;32.13
59240;BME280;45010;53.640;10.578;2023-12-04T07:59:32;100854.41;;;24.83;32.11
59240;BME280;45010;53.640;10.578;2023-12-04T08:02:32;100843.28;;;24.87;31.83
59240;BME280;45010;53.640;10.578;2023-12-04T08:05:33;100845.25;;;24.91;32.68
59240;BME280;45010;53.640;10.578;2023-12-04T08:08:33;100832.03;;;24.96;32.24
59240;BME280;45010;53.640;10.578;2023-12-04T08:11:34;100779.91;;;24.70;32.12
59240;BME280;45010;53.640;10.578;2023-12-04T08:14:34;100818.13;;;25.06;31.73
59240;BME280;45010;53.640;10.578;2023-12-04T08:17:35;100818.25;;;25.11;31.50
59240;BME280;45010;53.640;10.578;2023-12-04T08:20:35;100806.41;;;25.07;31.49
59240;BME280;45010;53.640;10.578;2023-12-04T08:23:35;100807.19;;;25.20;31.61
59240;BME280;45010;53.640;10.578;2023-12-04T08:26:36;100804.09;;;25.23;31.19
59240;BME280;45010;53.640;10.578;2023-12-04T08:29:36;100801.97;;;25.25;31.08
59240;BME280;45010;53.640;10.578;2023-12-04T08:32:36;100795.50;;;25.21;31.00
59240;BME280;45010;53.640;10.578;2023-12-04T08:35:37;100803.16;;;25.29;31.17
59240;BME280;45010;53.640;10.578;2023-12-04T08:38:37;100811.72;;;25.31;31.16
59240;BME280;45010;53.640;10.578;2023-12-04T08:41:37;100816.28;;;25.31;31.46
59240;BME280;45010;53.640;10.578;2023-12-04T08:44:38;100817.78;;;25.38;31.52
59240;BME280;45010;53.640;10.578;2023-12-04T08:47:39;100807.09;;;25.38;31.35
59240;BME280;45010;53.640;10.578;2023-12-04T08:50:39;100809.41;;;25.47;31.45
59240;BME280;45010;53.640;10.578;2023-12-04T08:53:40;100816.91;;;25.50;31.16
59240;BME280;45010;53.640;10.578;2023-12-04T08:56:40;100801.94;;;25.49;30.99
59240;BME280;45010;53.640;10.578;2023-12-04T08:59:41;100812.31;;;25.57;30.80
59240;BME280;45010;53.640;10.578;2023-12-04T09:02:42;100811.03;;;25.60;30.95
59240;BME280;45010;53.640;10.578;2023-12-04T09:05:42;100818.56;;;25.63;30.69
59240;BME280;45010;53.640;10.578;2023-12-04T09:08:42;100814.59;;;25.65;30.65
59240;BME280;45010;53.640;10.578;2023-12-04T09:11:43;100816.81;;;25.69;30.52
59240;BME280;45010;53.640;10.578;2023-12-04T09:14:43;100818.91;;;25.67;30.40
59240;BME280;45010;53.640;10.578;2023-12-04T09:17:44;100820.50;;;25.68;30.54
59240;BME280;45010;53.640;10.578;2023-12-04T09:20:44;100836.09;;;25.71;30.51
59240;BME280;45010;53.640;10.578;2023-12-04T09:23:44;100833.41;;;25.71;30.59
59240;BME280;45010;53.640;10.578;2023-12-04T09:26:49;100821.78;;;25.65;30.69
59240;BME280;45010;53.640;10.578;2023-12-04T09:29:50;100831.53;;;25.71;30.79
59240;BME280;45010;53.640;10.578;2023-12-04T09:32:50;100829.91;;;25.70;30.50
59240;BME280;45010;53.640;10.578;2023-12-04T09:35:50;100829.91;;;25.70;30.30
59240;BME280;45010;53.640;10.578;2023-12-04T09:38:51;100811.38;;;25.63;30.77
59240;BME280;45010;53.640;10.578;2023-12-04T09:41:52;100807.53;;;25.59;30.51
59240;BME280;45010;53.640;10.578;2023-12-04T09:44:53;100810.78;;;25.61;30.63
59240;BME280;45010;53.640;10.578;2023-12-04T09:47:55;100814.28;;;25.62;30.65
59240;BME280;45010;53.640;10.578;2023-12-04T09:50:57;100820.66;;;25.61;30.34
59240;BME280;45010;53.640;10.578;2023-12-04T09:54:01;100812.53;;;25.56;30.32
59240;BME280;45010;53.640;10.578;2023-12-04T09:57:04;100823.09;;;25.62;30.29
59240;BME280;45010;53.640;10.578;2023-12-04T10:00:05;100809.16;;;25.60;30.37
59240;BME280;45010;53.640;10.578;2023-12-04T10:03:06;100808.38;;;25.60;30.59
59240;BME280;45010;53.640;10.578;2023-12-04T10:06:07;100805.91;;;25.58;30.36
59240;BME280;45010;53.640;10.578;2023-12-04T10:09:08;100803.72;;;25.55;30.23
59240;BME280;45010;53.640;10.578;2023-12-04T10:12:11;100792.88;;;25.50;30.56
59240;BME280;45010;53.640;10.578;2023-12-04T10:15:12;100792.09;;;25.49;30.42
59240;BME280;45010;53.640;10.578;2023-12-04T10:18:29;100791.41;;;25.54;30.29
59240;BME280;45010;53.640;10.578;2023-12-04T10:21:34;100766.00;;;25.39;30.30
59240;BME280;45010;53.640;10.578;2023-12-04T10:24:35;100781.97;;;25.51;30.25
59240;BME280;45010;53.640;10.578;2023-12-04T10:27:36;100771.53;;;25.50;30.45
59240;BME280;45010;53.640;10.578;2023-12-04T10:30:37;100776.88;;;25.50;30.20
59240;BME280;45010;53.640;10.578;2023-12-04T10:33:38;100768.28;;;25.48;30.39
59240;BME280;45010;53.640;10.578;2023-12-04T10:36:38;100762.16;;;25.47;30.35
59240;BME280;45010;53.640;10.578;2023-12-04T10:39:46;100759.72;;;25.46;30.29
59240;BME280;45010;53.640;10.578;2023-12-04T10:42:47;100750.66;;;25.47;30.68
59240;BME280;45010;53.640;10.578;2023-12-04T10:45:48;100725.28;;;25.32;30.52
59240;BME280;45010;53.640;10.578;2023-12-04T10:48:49;100742.06;;;25.45;30.46
59240;BME280;45010;53.640;10.578;2023-12-04T10:51:49;100740.44;;;25.44;30.31
59240;BME280;45010;53.640;10.578;2023-12-04T10:54:50;100721.66;;;25.38;30.66
59240;BME280;45010;53.640;10.578;2023-12-04T10:57:51;100730.56;;;25.44;30.74
59240;BME280;45010;53.640;10.578;2023-12-04T11:00:55;100731.41;;;25.45;30.84
59240;BME280;45010;53.640;10.578;2023-12-04T11:03:58;100681.09;;;25.12;30.80
59240;BME280;45010;53.640;10.578;2023-12-04T11:06:59;100720.34;;;25.41;30.57
59240;BME280;45010;53.640;10.578;2023-12-04T11:10:02;100722.34;;;25.46;30.60
59240;BME280;45010;53.640;10.578;2023-12-04T11:13:08;100701.25;;;25.32;30.27
59240;BME280;45010;53.640;10.578;2023-12-04T11:19:37;100709.09;;;25.51;29.50
59240;BME280;45010;53.640;10.578;2023-12-04T11:22:40;100697.25;;;25.47;29.27
59240;BME280;45010;53.640;10.578;2023-12-04T11:25:42;100696.75;;;25.50;29.38
59240;BME280;45010;53.640;10.578;2023-12-04T11:28:43;100681.03;;;25.36;29.38
59240;BME280;45010;53.640;10.578;2023-12-04T11:31:44;100687.41;;;25.47;29.26
59240;BME280;45010;53.640;10.578;2023-12-04T11:34:54;100690.28;;;25.46;29.50
59240;BME280;45010;53.640;10.578;2023-12-04T11:37:56;100685.50;;;25.48;29.18
59240;BME280;45010;53.640;10.578;2023-12-04T11:40:58;100680.19;;;25.48;29.46
59240;BME280;45010;53.640;10.578;2023-12-04T11:43:58;100684.47;;;25.49;29.30
59240;BME280;45010;53.640;10.578;2023-12-04T11:47:04;100677.50;;;25.48;29.49
59240;BME280;45010;53.640;10.578;2023-12-04T11:50:05;100672.16;;;25.48;29.68
59240;BME280;45010;53.640;10.578;2023-12-04T11:53:05;100656.53;;;25.39;29.31
59240;BME280;45010;53.640;10.578;2023-12-04T11:56:12;100657.09;;;25.42;29.56
59240;BME280;45010;53.640;10.578;2023-12-04T11:59:14;100648.53;;;25.39;29.21
59240;BME280;45010;53.640;10.578;2023-12-04T12:02:15;100663.59;;;25.46;29.38
59240;BME280;45010;53.640;10.578;2023-12-04T12:05:16;100587.75;;;25.01;29.46
59240;BME280;45010;53.640;10.578;2023-12-04T12:08:16;100658.25;;;25.46;29.42
59240;BME280;45010;53.640;10.578;2023-12-04T12:11:17;100644.81;;;25.41;29.45
59240;BME280;45010;53.640;10.578;2023-12-04T12:14:21;100644.31;;;25.44;29.41
59240;BME280;45010;53.640;10.578;2023-12-04T12:17:21;100627.16;;;25.39;29.48
59240;BME280;45010;53.640;10.578;2023-12-04T12:20:22;100627.16;;;25.39;29.38
59240;BME280;45010;53.640;10.578;2023-12-04T12:23:22;100628.28;;;25.44;29.29
59240;BME280;45010;53.640;10.578;2023-12-04T12:26:23;100621.34;;;25.43;29.21
59240;BME280;45010;53.640;10.578;2023-12-04T12:29:24;100614.38;;;25.42;29.50
59240;BME280;45010;53.640;10.578;2023-12-04T12:32:26;100613.91;;;25.45;30.29
59240;BME280;45010;53.640;10.578;2023-12-04T12:35:27;100606.47;;;25.47;30.68
59240;BME280;45010;53.640;10.578;2023-12-04T12:38:27;100601.69;;;25.49;30.50
59240;BME280;45010;53.640;10.578;2023-12-04T12:41:27;100601.22;;;25.52;30.53
59240;BME280;45010;53.640;10.578;2023-12-04T12:47:41;100599.22;;;25.59;30.58
59240;BME280;45010;53.640;10.578;2023-12-04T12:50:45;100574.16;;;25.60;30.42
59240;BME280;45010;53.640;10.578;2023-12-04T12:53:47;100583.38;;;25.70;30.47
59240;BME280;45010;53.640;10.578;2023-12-04T12:56:48;100573.03;;;25.73;30.33
59240;BME280;45010;53.640;10.578;2023-12-04T12:59:49;100558.16;;;25.77;29.82
59240;BME280;45010;53.640;10.578;2023-12-04T13:02:52;100551.47;;;25.80;29.79
59240;BME280;45010;53.640;10.578;2023-12-04T13:05:53;100552.63;;;25.84;29.57
59240;BME280;45010;53.640;10.578;2023-12-04T13:08:53;100557.47;;;25.87;29.39
59240;BME280;45010;53.640;10.578;2023-12-04T13:11:54;100555.38;;;25.89;29.25
59240;BME280;45010;53.640;10.578;2023-12-04T13:14:55;100550.56;;;25.91;29.17
59240;BME280;45010;53.640;10.578;2023-12-04T13:17:55;100543.16;;;25.94;29.11
59240;BME280;45010;53.640;10.578;2023-12-04T13:20:56;100491.69;;;25.64;29.12
59240;BME280;45010;53.640;10.578;2023-12-04T13:23:57;100533.56;;;25.98;28.82
59240;BME280;45010;53.640;10.578;2023-12-04T13:26:57;100525.06;;;26.01;28.68
59240;BME280;45010;53.640;10.578;2023-12-04T13:29:58;100477.63;;;25.69;28.67
59240;BME280;45010;53.640;10.578;2023-12-04T13:32:58;100529.91;;;26.04;28.33
59240;BME280;45010;53.640;10.578;2023-12-04T13:35:58;100535.25;;;26.04;28.53
59240;BME280;45010;53.640;10.578;2023-12-04T13:38:59;100526.75;;;26.07;28.51
59240;BME280;45010;53.640;10.578;2023-12-04T13:41:59;100531.88;;;26.09;28.52
59240;BME280;45010;53.640;10.578;2023-12-04T13:45:18;100530.50;;;26.06;28.42
59240;BME280;45010;53.640;10.578;2023-12-04T13:48:21;100526.84;;;26.12;28.50
59240;BME280;45010;53.640;10.578;2023-12-04T13:51:22;100515.63;;;26.15;28.15
59240;BME280;45010;53.640;10.578;2023-12-04T13:54:22;100517.25;;;26.16;28.28
59240;BME280;45010;53.640;10.578;2023-12-04T13:57:35;100521.56;;;26.17;27.67
59240;BME280;45010;53.640;10.578;2023-12-04T14:00:44;100524.25;;;26.17;27.68
59240;BME280;45010;53.640;10.578;2023-12-04T14:03:44;100514.09;;;26.19;27.87
59240;BME280;45010;53.640;10.578;2023-12-04T14:06:45;100514.09;;;26.19;27.92
59240;BME280;45010;53.640;10.578;2023-12-04T14:09:45;100507.94;;;26.19;27.91
59240;BME280;45010;53.640;10.578;2023-12-04T14:12:47;100506.06;;;26.19;27.85
59240;BME280;45010;53.640;10.578;2023-12-04T14:15:47;100455.97;;;25.87;28.20
59240;BME280;45010;53.640;10.578;2023-12-04T14:18:47;100505.03;;;26.21;28.19
59240;BME280;45010;53.640;10.578;2023-12-04T14:21:48;100508.50;;;26.21;28.32
59240;BME280;45010;53.640;10.578;2023-12-04T14:24:48;100505.59;;;26.23;28.56
59240;BME280;45010;53.640;10.578;2023-12-04T14:27:48;100505.59;;;26.23;28.45
59240;BME280;45010;53.640;10.578;2023-12-04T14:30:49;100501.91;;;26.24;28.50
59240;BME280;45010;53.640;10.578;2023-12-04T14:33:50;100501.91;;;26.24;28.32
59240;BME280;45010;53.640;10.578;2023-12-04T14:36:50;100504.56;;;26.24;28.27
59240;BME280;45010;53.640;10.578;2023-12-04T14:39:50;100494.66;;;26.24;28.47
59240;BME280;45010;53.640;10.578;2023-12-04T14:42:50;100502.44;;;26.26;28.21
59240;BME280;45010;53.640;10.578;2023-12-04T14:45:51;100499.78;;;26.26;28.82
59240;BME280;45010;53.640;10.578;2023-12-04T14:48:52;100499.53;;;26.27;28.32
59240;BME280;45010;53.640;10.578;2023-12-04T14:51:52;100503.00;;;26.28;28.56
59240;BME280;45010;53.640;10.578;2023-12-04T14:54:52;100493.94;;;26.29;28.84
59240;BME280;45010;53.640;10.578;2023-12-04T14:57:59;100488.59;;;26.29;28.41
59240;BME280;45010;53.640;10.578;2023-12-04T15:01:02;100481.38;;;26.29;28.40
59240;BME280;45010;53.640;10.578;2023-12-04T15:04:11;100480.31;;;26.30;28.47
59240;BME280;45010;53.640;10.578;2023-12-04T15:07:30;100465.03;;;26.26;28.52
59240;BME280;45010;53.640;10.578;2023-12-04T15:10:53;100425.66;;;25.99;28.12
59240;BME280;45010;53.640;10.578;2023-12-04T15:14:12;100468.31;;;26.33;28.70
59240;BME280;45010;53.640;10.578;2023-12-04T15:17:31;100402.34;;;25.94;28.53
59240;BME280;45010;53.640;10.578;2023-12-04T15:20:45;100459.75;;;26.31;28.57
59240;BME280;45010;53.640;10.578;2023-12-04T15:23:45;100458.75;;;26.37;28.20
59240;BME280;45010;53.640;10.578;2023-12-04T15:26:45;100455.00;;;26.38;28.35
59240;BME280;45010;53.640;10.578;2023-12-04T15:29:46;100435.69;;;26.31;28.55
59240;BME280;45010;53.640;10.578;2023-12-04T15:32:46;100446.97;;;26.38;28.75
59240;BME280;45010;53.640;10.578;2023-12-04T15:35:46;100442.69;;;26.37;28.53
59240;BME280;45010;53.640;10.578;2023-12-04T15:38:47;100449.66;;;26.38;28.41
59240;BME280;45010;53.640;10.578;2023-12-04T15:41:47;100438.41;;;26.36;28.53